Time;durP1;ratioP1;P1;durP2;ratioP2;P2;SDS_P1;SDS_P2;PMS_P1;PMS_P2;Temp;Humidity;BMP_temperature;BMP_pressure;BME280_temperature;BME280_humidity;BME280_pressure;Samples;Min_cycle;Max_cycle;Signal;HPM_P1;HPM_P2
2021/04/24 00:01:38;;;;;;;3.50;2.03;;;22.20;48.00;;;;;;5091990;28;20440;-84
2021/04/24 00:04:05;;;;;;;3.07;1.83;;;22.10;48.10;;;;;;5091799;28;20448;-84
2021/04/24 00:06:31;;;;;;;2.60;2.10;;;22.10;48.00;;;;;;5091358;28;20969;-83
2021/04/24 00:08:59;;;;;;;3.67;2.10;;;22.10;48.10;;;;;;5091434;28;20412;-83
2021/04/24 00:11:26;;;;;;;4.80;3.00;;;22.10;47.90;;;;;;5076159;28;20412;-83
2021/04/24 00:13:54;;;;;;;3.73;2.30;;;22.20;48.10;;;;;;5093060;28;20562;-83
2021/04/24 00:16:21;;;;;;;2.43;1.80;;;22.10;47.90;;;;;;5092570;28;20417;-83
2021/04/24 00:18:46;;;;;;;4.03;2.40;;;22.10;48.00;;;;;;5092957;28;20511;-83
2021/04/24 00:21:13;;;;;;;3.07;2.40;;;22.10;48.10;;;;;;5092976;28;20417;-84
2021/04/24 00:23:39;;;;;;;3.00;1.80;;;22.10;48.20;;;;;;5092580;28;20526;-84
2021/04/24 00:26:05;;;;;;;3.00;2.27;;;22.10;48.40;;;;;;5092153;28;20432;-83
2021/04/24 00:28:31;;;;;;;3.07;2.43;;;22.10;48.20;;;;;;5092394;28;20412;-83
2021/04/24 00:30:57;;;;;;;3.10;2.37;;;22.10;48.40;;;;;;5092255;28;20170;-83
2021/04/24 00:33:24;;;;;;;3.13;2.20;;;22.10;48.20;;;;;;5090617;28;20424;-84
2021/04/24 00:35:51;;;;;;;3.03;1.90;;;22.10;48.10;;;;;;5091058;28;20416;-84
2021/04/24 00:38:17;;;;;;;3.20;2.10;;;22.10;48.00;;;;;;5091036;28;20442;-84
2021/04/24 00:40:43;;;;;;;5.50;2.17;;;22.10;48.30;;;;;;5092237;28;20421;-84
2021/04/24 00:43:08;;;;;;;2.67;2.20;;;22.10;48.40;;;;;;5092258;28;20515;-83
2021/04/24 00:45:35;;;;;;;4.70;2.40;;;22.10;48.40;;;;;;5093070;28;20178;-84
2021/04/24 00:48:01;;;;;;;3.10;2.07;;;22.00;48.20;;;;;;5092569;28;20452;-82
2021/04/24 00:50:31;;;;;;;3.30;2.57;;;22.00;48.10;;;;;;5093779;28;20229;-82
2021/04/24 00:52:57;;;;;;;3.93;2.30;;;21.90;48.00;;;;;;5092075;28;20178;-82
2021/04/24 00:55:23;;;;;;;3.47;2.80;;;22.00;48.10;;;;;;5089865;28;20405;-82
2021/04/24 00:57:49;;;;;;;4.03;2.10;;;22.10;48.40;;;;;;5089970;28;20415;-82
2021/04/24 01:00:17;;;;;;;3.50;1.90;;;22.00;48.10;;;;;;5089994;28;20178;-82
2021/04/24 01:02:43;;;;;;;4.13;2.13;;;22.00;48.20;;;;;;5089721;28;20488;-81
2021/04/24 01:05:17;;;;;;;3.43;2.20;;;22.00;48.20;;;;;;5090128;28;20423;-81
2021/04/24 01:07:43;;;;;;;2.40;1.90;;;22.10;48.10;;;;;;5089651;28;20467;-81
2021/04/24 01:10:11;;;;;;;3.47;2.13;;;22.00;48.10;;;;;;5089378;28;20442;-81
2021/04/24 01:12:37;;;;;;;2.70;1.63;;;22.10;48.00;;;;;;5089183;28;20867;-82
2021/04/24 01:15:05;;;;;;;3.73;2.10;;;22.10;47.50;;;;;;5089280;28;20503;-82
2021/04/24 01:17:31;;;;;;;4.87;3.37;;;22.10;47.80;;;;;;5089850;28;20423;-83
2021/04/24 01:19:57;;;;;;;4.00;2.07;;;22.10;48.00;;;;;;5089913;28;20425;-82
2021/04/24 01:22:23;;;;;;;3.40;2.10;;;22.10;48.00;;;;;;5073333;28;20182;-82
2021/04/24 01:24:49;;;;;;;5.77;1.97;;;22.10;47.80;;;;;;5071560;28;20422;-81
2021/04/24 01:27:15;;;;;;;3.50;2.37;;;22.10;47.70;;;;;;5069829;28;20453;-81
2021/04/24 01:29:42;;;;;;;4.27;2.67;;;22.20;48.10;;;;;;5068604;28;20405;-82
2021/04/24 01:32:08;;;;;;;4.40;2.23;;;22.10;47.70;;;;;;5071231;28;20459;-82
2021/04/24 01:34:34;;;;;;;4.30;2.20;;;22.20;47.70;;;;;;5071743;28;20402;-84
2021/04/24 01:37:02;;;;;;;3.03;2.30;;;22.20;47.70;;;;;;5082194;28;20413;-83
2021/04/24 01:39:29;;;;;;;3.93;2.20;;;22.20;47.70;;;;;;5093341;28;20412;-83
2021/04/24 01:41:56;;;;;;;2.73;2.07;;;22.20;47.70;;;;;;5075823;28;20468;-80
2021/04/24 01:44:23;;;;;;;2.80;1.80;;;22.20;47.60;;;;;;5093343;28;20416;-80
2021/04/24 01:46:51;;;;;;;2.33;1.80;;;22.20;47.60;;;;;;5075816;28;20475;-82
2021/04/24 01:49:17;;;;;;;2.53;1.87;;;22.20;47.60;;;;;;5092591;28;20421;-80
2021/04/24 01:51:43;;;;;;;2.70;1.73;;;22.20;47.70;;;;;;5092569;28;20408;-80
2021/04/24 01:54:10;;;;;;;5.60;2.23;;;22.20;47.60;;;;;;5093555;28;20439;-81
2021/04/24 01:56:43;;;;;;;3.47;2.37;;;22.20;47.80;;;;;;5093067;28;20427;-80
2021/04/24 01:59:13;;;;;;;3.30;2.10;;;22.30;47.60;;;;;;5092203;28;20424;-81
2021/04/24 02:01:41;;;;;;;3.00;1.77;;;22.20;47.50;;;;;;5092037;28;20452;-81
2021/04/24 02:04:08;;;;;;;3.20;1.97;;;22.20;47.50;;;;;;5092488;28;20428;-82
2021/04/24 02:06:34;;;;;;;2.50;1.80;;;22.50;47.90;;;;;;5093295;28;20535;-81
2021/04/24 02:08:59;;;;;;;4.33;1.93;;;22.20;47.70;;;;;;5092527;28;20245;-81
2021/04/24 02:11:28;;;;;;;2.37;1.60;;;22.20;47.60;;;;;;5093710;28;20196;-81
2021/04/24 02:13:54;;;;;;;3.00;1.80;;;22.10;47.80;;;;;;5092251;28;20198;-81
2021/04/24 02:16:20;;;;;;;3.37;1.60;;;22.40;47.80;;;;;;5093785;28;20420;-82
2021/04/24 02:18:49;;;;;;;2.70;1.80;;;22.20;47.60;;;;;;5093247;28;20170;-82
2021/04/24 02:21:15;;;;;;;3.20;2.00;;;22.30;47.80;;;;;;5092434;28;20424;-81
2021/04/24 02:23:44;;;;;;;2.20;1.83;;;22.20;47.70;;;;;;5093700;28;21001;-81
2021/04/24 02:26:10;;;;;;;3.43;2.07;;;22.20;48.10;;;;;;5092484;28;20198;-81
2021/04/24 02:28:36;;;;;;;3.67;2.17;;;22.20;47.80;;;;;;5092563;28;20416;-81
2021/04/24 02:31:03;;;;;;;2.70;1.73;;;22.20;47.70;;;;;;5093497;28;20424;-81
2021/04/24 02:33:29;;;;;;;3.33;1.90;;;22.20;47.70;;;;;;5091832;28;20421;-81
2021/04/24 02:35:58;;;;;;;1.87;1.53;;;22.20;47.70;;;;;;5089218;28;20409;-81
2021/04/24 02:38:27;;;;;;;2.47;1.80;;;22.20;47.70;;;;;;5071550;28;20497;-80
2021/04/24 02:40:55;;;;;;;3.00;2.03;;;22.20;47.70;;;;;;5073365;28;20875;-81
2021/04/24 02:43:21;;;;;;;3.60;2.63;;;22.20;47.60;;;;;;5070836;28;20441;-81
2021/04/24 02:45:49;;;;;;;2.20;1.90;;;22.20;47.90;;;;;;5070671;28;20417;-81
2021/04/24 02:48:16;;;;;;;1.77;1.40;;;22.30;47.80;;;;;;5070847;28;20457;-81
2021/04/24 02:50:43;;;;;;;2.43;2.00;;;22.20;47.70;;;;;;5075505;28;20492;-81
2021/04/24 02:53:09;;;;;;;2.23;1.60;;;22.30;47.90;;;;;;5090919;28;20425;-81
2021/04/24 02:55:36;;;;;;;2.30;1.80;;;22.20;47.70;;;;;;5074243;28;20459;-81
2021/04/24 02:58:01;;;;;;;2.57;1.80;;;22.20;47.60;;;;;;5074280;28;20421;-81
2021/04/24 03:00:28;;;;;;;4.20;1.97;;;22.20;48.00;;;;;;5074010;28;20437;-81
2021/04/24 03:03:09;;;;;;;2.23;1.63;;;22.20;47.70;;;;;;5057026;28;20237;-80
2021/04/24 03:05:36;;;;;;;4.00;1.73;;;22.20;47.60;;;;;;5075146;28;20376;-80
2021/04/24 03:08:04;;;;;;;2.30;1.30;;;22.20;47.60;;;;;;5076216;28;20452;-81
2021/04/24 03:10:29;;;;;;;2.27;1.90;;;22.20;48.20;;;;;;5072453;28;20409;-81
2021/04/24 03:12:57;;;;;;;3.37;1.83;;;22.20;47.90;;;;;;5074747;28;20412;-80
2021/04/24 03:15:23;;;;;;;2.87;1.90;;;22.20;47.70;;;;;;5074900;28;20202;-81
2021/04/24 03:17:50;;;;;;;2.00;1.70;;;22.20;47.60;;;;;;5075375;28;20449;-81
2021/04/24 03:20:18;;;;;;;2.50;1.80;;;22.20;47.60;;;;;;5076891;28;20413;-81
2021/04/24 03:22:44;;;;;;;2.30;1.30;;;22.20;47.70;;;;;;5077028;28;20420;-80
2021/04/24 03:25:17;;;;;;;1.57;1.40;;;22.40;47.90;;;;;;5076244;28;20450;-81
2021/04/24 03:27:46;;;;;;;2.43;1.60;;;22.30;47.60;;;;;;5075052;28;20457;-81
2021/04/24 03:30:20;;;;;;;2.67;1.50;;;22.30;47.70;;;;;;5075092;28;20455;-81
2021/04/24 03:32:47;;;;;;;2.57;1.60;;;22.20;47.70;;;;;;5075407;28;20420;-80
2021/04/24 03:35:13;;;;;;;3.10;1.70;;;22.30;47.70;;;;;;5075531;28;20413;-81
2021/04/24 03:37:39;;;;;;;2.87;1.67;;;22.20;47.60;;;;;;5075279;28;20425;-81
2021/04/24 03:40:06;;;;;;;2.17;1.93;;;22.30;47.70;;;;;;5074912;28;20417;-81
2021/04/24 03:42:32;;;;;;;2.40;2.10;;;22.30;47.80;;;;;;5074586;28;20449;-82
2021/04/24 03:45:00;;;;;;;2.20;1.50;;;22.20;47.90;;;;;;5074641;28;20429;-81
2021/04/24 03:47:33;;;;;;;2.63;1.60;;;22.20;47.60;;;;;;5074886;28;20468;-81
2021/04/24 03:49:59;;;;;;;2.27;1.70;;;22.20;47.70;;;;;;5075969;28;20413;-81
2021/04/24 03:52:25;;;;;;;2.70;1.40;;;22.20;48.00;;;;;;5075082;28;20421;-81
2021/04/24 03:54:50;;;;;;;1.53;1.37;;;22.20;47.70;;;;;;5075014;28;20228;-81
2021/04/24 03:57:17;;;;;;;2.63;1.50;;;22.20;47.70;;;;;;5074480;28;20193;-81
2021/04/24 03:59:44;;;;;;;2.33;1.50;;;22.20;47.80;;;;;;5074060;28;20179;-81
2021/04/24 04:02:10;;;;;;;2.00;1.37;;;22.20;47.80;;;;;;5073218;28;20488;-85
2021/04/24 04:04:40;;;;;;;2.60;1.47;;;22.20;47.70;;;;;;5072404;28;20441;-84
2021/04/24 04:07:06;;;;;;;2.73;1.60;;;22.20;47.70;;;;;;5072305;28;20467;-84
2021/04/24 04:09:32;;;;;;;2.07;1.37;;;22.20;47.80;;;;;;5071756;28;20453;-84
2021/04/24 04:11:57;;;;;;;2.80;1.50;;;22.20;47.80;;;;;;5074130;28;20171;-84
2021/04/24 04:14:23;;;;;;;2.20;1.50;;;22.20;47.70;;;;;;5075092;28;20447;-83
2021/04/24 04:16:58;;;;;;;4.23;1.77;;;22.20;47.80;;;;;;5075142;28;20183;-82
2021/04/24 04:19:38;;;;;;;2.60;1.90;;;22.20;47.70;;;;;;5055633;28;20679;-81
2021/04/24 04:22:04;;;;;;;2.60;1.40;;;22.20;47.70;;;;;;5056868;28;20441;-80
2021/04/24 04:24:32;;;;;;;2.10;1.60;;;22.20;47.70;;;;;;5055314;28;20452;-80
2021/04/24 04:27:02;;;;;;;3.57;1.93;;;22.20;47.70;;;;;;5056424;28;20458;-80
2021/04/24 04:29:29;;;;;;;3.03;1.60;;;22.20;47.70;;;;;;5056034;28;20482;-80
2021/04/24 04:31:55;;;;;;;2.57;1.47;;;22.20;47.70;;;;;;5054818;28;20418;-81
2021/04/24 04:34:22;;;;;;;1.90;1.43;;;22.20;47.70;;;;;;5055916;28;20160;-80
2021/04/24 04:36:48;;;;;;;2.00;1.50;;;22.20;47.70;;;;;;5053022;28;20419;-84
2021/04/24 04:39:14;;;;;;;2.67;1.50;;;22.20;47.60;;;;;;5053435;28;20486;-84
2021/04/24 04:41:42;;;;;;;2.90;1.40;;;22.20;47.60;;;;;;5053387;28;20182;-84
2021/04/24 04:44:07;;;;;;;2.50;1.70;;;22.20;47.50;;;;;;5052437;28;20407;-84
2021/04/24 04:46:33;;;;;;;2.30;1.47;;;22.20;47.50;;;;;;5053135;28;20489;-81
2021/04/24 04:49:02;;;;;;;2.80;1.97;;;22.30;47.60;;;;;;5055117;28;20175;-80
2021/04/24 04:51:28;;;;;;;4.07;1.73;;;22.30;47.50;;;;;;5054696;28;20446;-81
2021/04/24 04:53:53;;;;;;;2.80;2.00;;;22.30;47.50;;;;;;5054180;28;20418;-81
2021/04/24 04:56:19;;;;;;;3.13;1.33;;;22.30;47.40;;;;;;5053996;28;20182;-81
2021/04/24 04:58:45;;;;;;;2.63;1.80;;;22.40;47.50;;;;;;5054024;28;20171;-81
2021/04/24 05:01:11;;;;;;;2.40;1.33;;;22.40;47.50;;;;;;5053756;28;20171;-81
2021/04/24 05:03:38;;;;;;;2.10;1.50;;;22.40;47.40;;;;;;5052382;28;20180;-81
2021/04/24 05:06:05;;;;;;;2.20;1.50;;;22.40;47.40;;;;;;5053624;28;20225;-80
2021/04/24 05:08:31;;;;;;;2.17;1.63;;;22.40;47.40;;;;;;5053174;28;20493;-80
2021/04/24 05:10:56;;;;;;;1.90;1.40;;;22.40;47.40;;;;;;5052268;28;20415;-81
2021/04/24 05:13:22;;;;;;;2.33;1.40;;;22.50;47.50;;;;;;5054189;28;20414;-81
2021/04/24 05:19:11;;;;;;;1.50;1.40;;;22.50;47.40;;;;;;5054083;28;20409;-81
2021/04/24 05:21:37;;;;;;;2.23;1.60;;;22.50;47.40;;;;;;5053087;28;20426;-80
2021/04/24 05:24:05;;;;;;;1.70;1.33;;;22.50;47.40;;;;;;5053868;28;20425;-79
2021/04/24 05:26:33;;;;;;;3.10;1.73;;;22.50;47.40;;;;;;5054540;28;20489;-81
2021/04/24 05:28:59;;;;;;;1.80;1.27;;;22.50;47.40;;;;;;5054278;28;20427;-81
2021/04/24 05:31:26;;;;;;;2.50;1.50;;;22.50;47.40;;;;;;5053092;28;20508;-81
2021/04/24 05:33:54;;;;;;;1.73;1.23;;;22.50;47.30;;;;;;5050983;28;20761;-80
2021/04/24 05:36:21;;;;;;;1.83;1.50;;;22.50;47.30;;;;;;5050809;28;20411;-81
2021/04/24 05:38:53;;;;;;;3.33;1.63;;;22.50;47.30;;;;;;5050021;28;20513;-81
2021/04/24 05:41:21;;;;;;;1.97;1.30;;;22.60;47.40;;;;;;5050353;28;20414;-81
2021/04/24 05:43:57;;;;;;;4.93;1.90;;;22.50;47.40;;;;;;5050464;28;20445;-81
2021/04/24 05:46:23;;;;;;;2.33;1.40;;;22.50;47.40;;;;;;5050385;28;20410;-80
2021/04/24 05:52:11;;;;;;;2.00;1.43;;;22.50;47.50;;;;;;5050732;28;20377;-80
2021/04/24 05:54:40;;;;;;;1.40;1.30;;;22.50;47.70;;;;;;5050129;28;20505;-82
2021/04/24 05:57:06;;;;;;;2.10;1.40;;;22.50;47.70;;;;;;5050648;28;20410;-81
2021/04/24 05:59:32;;;;;;;1.40;1.20;;;22.40;47.70;;;;;;5051565;28;20408;-82
2021/04/24 06:01:58;;;;;;;1.40;1.13;;;22.40;47.70;;;;;;5033542;28;20183;-80
2021/04/24 06:04:25;;;;;;;2.00;1.60;;;22.40;47.60;;;;;;5051081;28;20430;-81
2021/04/24 06:06:51;;;;;;;1.83;1.40;;;22.40;47.70;;;;;;5053075;28;20203;-80
2021/04/24 06:09:17;;;;;;;1.30;1.10;;;22.40;47.80;;;;;;5051905;28;20993;-81
2021/04/24 06:11:43;;;;;;;1.93;1.40;;;22.40;47.80;;;;;;5052268;28;20423;-80
2021/04/24 06:14:09;;;;;;;1.97;1.40;;;22.40;47.80;;;;;;5051618;28;20187;-81
2021/04/24 06:16:35;;;;;;;2.50;1.70;;;22.40;47.80;;;;;;5051405;28;20406;-81
2021/04/24 06:19:04;;;;;;;2.17;1.60;;;22.40;47.80;;;;;;5065934;28;20421;-80
2021/04/24 06:21:30;;;;;;;1.80;1.40;;;22.40;47.90;;;;;;5071543;28;20415;-81
2021/04/24 06:23:56;;;;;;;2.20;1.47;;;22.40;48.00;;;;;;5052627;28;20448;-81
2021/04/24 06:26:22;;;;;;;1.87;1.67;;;22.40;47.80;;;;;;5069959;28;20428;-81
2021/04/24 06:28:48;;;;;;;2.10;1.40;;;22.40;47.80;;;;;;5069703;28;20417;-81
2021/04/24 06:31:14;;;;;;;1.67;1.30;;;22.40;47.90;;;;;;5069522;28;20548;-81
2021/04/24 06:33:41;;;;;;;2.10;1.47;;;22.40;47.70;;;;;;5069359;28;20413;-80
2021/04/24 06:36:07;;;;;;;2.13;1.70;;;22.40;47.80;;;;;;5068396;28;20174;-81
2021/04/24 06:38:35;;;;;;;1.90;1.57;;;22.40;47.80;;;;;;5070175;28;20441;-82
2021/04/24 06:41:00;;;;;;;2.20;2.00;;;22.40;47.70;;;;;;5068474;28;20608;-82
2021/04/24 06:43:26;;;;;;;2.03;1.83;;;22.50;47.80;;;;;;5068763;28;20464;-82
2021/04/24 06:45:55;;;;;;;3.63;2.10;;;22.40;47.80;;;;;;5070459;28;20167;-82
2021/04/24 06:48:21;;;;;;;2.07;1.87;;;22.40;47.70;;;;;;5070578;28;20200;-82
2021/04/24 06:50:47;;;;;;;2.50;1.77;;;22.40;47.60;;;;;;5052801;28;20430;-82
2021/04/24 06:53:12;;;;;;;2.00;1.73;;;22.40;47.70;;;;;;5069277;28;20265;-82
2021/04/24 06:59:08;;;;;;;2.23;1.47;;;22.40;47.50;;;;;;5072483;28;20161;-82
2021/04/24 07:01:35;;;;;;;3.10;2.40;;;22.30;47.50;;;;;;5074279;28;20390;-81
2021/04/24 07:04:07;;;;;;;2.27;1.90;;;22.30;47.70;;;;;;5067565;28;20417;-84
2021/04/24 07:09:35;;;;;;;2.20;1.73;;;22.20;47.50;;;;;;5069050;28;20385;-82
2021/04/24 07:12:01;;;;;;;2.53;1.70;;;22.30;47.70;;;;;;5067825;28;20814;-84
2021/04/24 07:14:26;;;;;;;1.47;1.23;;;22.30;47.60;;;;;;5067755;28;20524;-84
2021/04/24 07:16:52;;;;;;;2.00;1.30;;;22.40;47.70;;;;;;5065998;28;20238;-84
2021/04/24 07:19:18;;;;;;;2.47;1.53;;;22.30;47.80;;;;;;5063341;28;20184;-83
2021/04/24 07:21:45;;;;;;;1.67;1.23;;;22.40;47.90;;;;;;5046775;28;20207;-83
2021/04/24 07:24:11;;;;;;;1.87;1.60;;;22.40;47.60;;;;;;5046059;28;20180;-83
2021/04/24 07:26:36;;;;;;;2.10;1.50;;;22.40;47.80;;;;;;5080173;28;20469;-83
2021/04/24 07:29:02;;;;;;;2.30;1.80;;;22.40;47.70;;;;;;5049039;28;20535;-83
2021/04/24 07:31:28;;;;;;;2.53;1.83;;;22.40;47.70;;;;;;5062697;28;20425;-84
2021/04/24 07:34:00;;;;;;;3.00;1.57;;;22.40;47.80;;;;;;5050280;28;20160;-83
2021/04/24 07:36:30;;;;;;;2.60;1.70;;;22.40;47.70;;;;;;5054384;28;20444;-83
2021/04/24 07:38:57;;;;;;;1.87;1.70;;;22.40;47.70;;;;;;5054182;28;20414;-83
2021/04/24 07:41:27;;;;;;;2.67;1.90;;;22.20;47.40;;;;;;5053414;28;20433;-84
2021/04/24 07:43:53;;;;;;;1.87;1.60;;;22.40;47.70;;;;;;5072129;28;20799;-84
2021/04/24 07:46:19;;;;;;;1.67;1.57;;;22.40;47.70;;;;;;5074394;28;20421;-84
2021/04/24 07:48:48;;;;;;;2.77;1.80;;;22.40;47.80;;;;;;5073428;28;20485;-84
2021/04/24 07:51:14;;;;;;;2.53;1.67;;;22.40;47.70;;;;;;5069744;28;20435;-86
2021/04/24 07:53:42;;;;;;;2.57;1.77;;;22.40;47.70;;;;;;5062182;28;20410;-86
2021/04/24 07:56:08;;;;;;;3.37;1.80;;;22.40;47.70;;;;;;5052017;28;20402;-86
2021/04/24 07:58:34;;;;;;;3.97;2.07;;;22.40;47.70;;;;;;5051893;28;20418;-86
2021/04/24 08:01:01;;;;;;;3.10;2.00;;;22.40;47.80;;;;;;5046504;28;20501;-86
2021/04/24 08:03:27;;;;;;;2.40;2.00;;;22.40;47.90;;;;;;5046824;28;20418;-86
2021/04/24 08:05:52;;;;;;;3.60;1.90;;;22.40;47.80;;;;;;5047622;28;20410;-85
2021/04/24 08:08:18;;;;;;;1.87;1.60;;;22.40;47.80;;;;;;5047973;28;20266;-86
2021/04/24 08:10:44;;;;;;;3.40;1.93;;;22.40;47.60;;;;;;5046050;28;20202;-85
2021/04/24 08:13:10;;;;;;;1.90;1.50;;;22.40;48.30;;;;;;5047657;28;20403;-85
2021/04/24 08:15:36;;;;;;;3.30;1.80;;;22.40;47.70;;;;;;5047231;28;20175;-85
2021/04/24 08:18:05;;;;;;;2.07;1.77;;;22.40;47.90;;;;;;5045893;28;20199;-85
2021/04/24 08:20:30;;;;;;;2.77;1.90;;;22.40;47.50;;;;;;5063417;28;20184;-86
2021/04/24 08:22:56;;;;;;;1.90;1.70;;;22.40;47.70;;;;;;5046353;28;20932;-86
2021/04/24 08:25:50;;;;;;;2.00;1.80;;;22.40;47.60;;;;;;5046387;28;20214;-85
2021/04/24 08:28:19;;;;;;;2.00;1.77;;;22.40;47.50;;;;;;5047242;28;20514;-86
2021/04/24 08:30:45;;;;;;;2.90;1.67;;;22.40;47.70;;;;;;5046039;28;20457;-86
2021/04/24 08:33:10;;;;;;;2.77;2.27;;;22.40;47.60;;;;;;5049543;28;20410;-86
2021/04/24 08:35:37;;;;;;;1.80;1.57;;;22.40;47.70;;;;;;5046443;28;20168;-86
2021/04/24 08:38:04;;;;;;;2.87;2.43;;;22.40;47.70;;;;;;5047305;28;20180;-86
2021/04/24 08:40:30;;;;;;;2.40;1.80;;;22.40;48.30;;;;;;5045551;28;20419;-86
2021/04/24 08:43:00;;;;;;;2.10;1.40;;;22.40;47.70;;;;;;5081211;28;20811;-84
2021/04/24 08:45:33;;;;;;;2.60;1.63;;;22.40;47.60;;;;;;5080806;28;20418;-84
2021/04/24 08:48:08;;;;;;;2.10;1.63;;;22.40;47.60;;;;;;5047386;28;20464;-85
2021/04/24 08:50:35;;;;;;;2.10;1.73;;;22.40;47.60;;;;;;5046929;28;20772;-84
2021/04/24 08:53:02;;;;;;;4.10;1.90;;;22.40;47.60;;;;;;5047979;28;20415;-83
2021/04/24 08:55:34;;;;;;;3.80;1.60;;;22.40;47.60;;;;;;5080451;28;20415;-84
2021/04/24 08:58:02;;;;;;;3.73;1.83;;;22.40;47.70;;;;;;5047529;28;20486;-84
2021/04/24 09:00:36;;;;;;;2.43;1.90;;;22.40;47.70;;;;;;5047076;28;20414;-84
2021/04/24 09:03:03;;;;;;;4.50;1.70;;;22.50;47.80;;;;;;5051489;28;20808;-84
2021/04/24 09:05:28;;;;;;;4.00;1.97;;;22.40;47.70;;;;;;5067216;28;20421;-83
2021/04/24 09:08:07;;;;;;;1.70;1.60;;;22.40;47.70;;;;;;5066747;28;20449;-83
2021/04/24 09:17:24;;;;;;;2.20;1.47;;;22.50;47.70;;;;;;5050711;28;20416;-85
2021/04/24 09:19:49;;;;;;;2.43;1.87;;;22.40;47.80;;;;;;5066668;28;20579;-82
2021/04/24 09:22:23;;;;;;;2.00;1.60;;;22.40;47.90;;;;;;5062158;28;20444;-83
2021/04/24 09:24:51;;;;;;;2.50;1.77;;;22.40;47.70;;;;;;5063601;28;20274;-81
2021/04/24 09:27:17;;;;;;;3.33;1.73;;;22.40;47.70;;;;;;5065276;28;20492;-81
2021/04/24 09:29:48;;;;;;;2.13;1.70;;;22.40;47.70;;;;;;5067336;28;20411;-84
2021/04/24 09:32:22;;;;;;;2.33;1.83;;;22.40;47.60;;;;;;5067716;28;20410;-85
2021/04/24 09:34:50;;;;;;;2.30;2.10;;;22.40;47.70;;;;;;5066929;28;20417;-85
2021/04/24 09:37:21;;;;;;;2.97;1.70;;;22.40;47.70;;;;;;5067819;28;20445;-84
2021/04/24 09:39:52;;;;;;;2.57;1.90;;;22.40;47.70;;;;;;5067047;28;20413;-85
2021/04/24 09:42:36;;;;;;;2.90;1.80;;;22.40;47.70;;;;;;5067837;28;20437;-84
2021/04/24 09:45:08;;;;;;;2.90;2.17;;;22.40;47.80;;;;;;5067684;28;20436;-85
2021/04/24 09:47:44;;;;;;;2.80;2.07;;;22.50;47.80;;;;;;5066464;28;20503;-84
2021/04/24 09:50:20;;;;;;;2.80;2.30;;;22.40;47.70;;;;;;5066854;28;20496;-84
2021/04/24 09:52:46;;;;;;;3.13;1.73;;;22.40;47.70;;;;;;5067960;28;20402;-84
2021/04/24 09:55:40;;;;;;;2.37;2.10;;;22.30;47.70;;;;;;5066803;28;20414;-85
2021/04/24 09:58:32;;;;;;;3.33;2.60;;;22.40;47.70;;;;;;5069349;28;20480;-84
2021/04/24 10:01:31;;;;;;;2.53;1.93;;;22.40;47.70;;;;;;5069594;28;20950;-83
2021/04/24 10:03:57;;;;;;;2.60;2.23;;;22.30;47.70;;;;;;5063585;28;20429;-83
2021/04/24 10:06:27;;;;;;;3.07;1.90;;;22.50;47.90;;;;;;5070033;28;20417;-83
2021/04/24 10:09:08;;;;;;;3.50;1.80;;;22.40;48.10;;;;;;5070170;28;20420;-83
2021/04/24 10:11:34;;;;;;;4.10;2.43;;;22.40;48.00;;;;;;5068815;28;20410;-83
2021/04/24 10:14:02;;;;;;;3.20;2.40;;;22.40;47.70;;;;;;5069321;28;20437;-83
2021/04/24 10:16:46;;;;;;;1.90;1.70;;;22.40;47.80;;;;;;5086349;28;20422;-83
2021/04/24 10:19:38;;;;;;;4.07;2.13;;;22.40;47.70;;;;;;5068756;28;20429;-84
2021/04/24 10:22:13;;;;;;;2.57;2.37;;;22.40;47.70;;;;;;5068567;28;20417;-84
2021/04/24 10:24:47;;;;;;;2.00;1.60;;;22.40;47.80;;;;;;5067529;28;20945;-83
2021/04/24 10:27:21;;;;;;;3.00;1.73;;;22.40;47.70;;;;;;5067932;28;20455;-83
2021/04/24 10:29:52;;;;;;;2.10;1.60;;;22.40;47.70;;;;;;5066632;28;20405;-82
2021/04/24 10:35:41;;;;;;;2.47;2.00;;;22.40;47.70;;;;;;5066991;28;20384;-84
2021/04/24 10:41:39;;;;;;;3.30;2.23;;;22.40;47.70;;;;;;5067830;28;20412;-83
2021/04/24 10:44:56;;;;;;;2.93;2.17;;;22.40;47.70;;;;;;5066323;28;20552;-85
2021/04/24 10:48:09;;;;;;;3.00;2.57;;;22.40;47.70;;;;;;5065710;28;20461;-86
2021/04/24 10:51:31;;;;;;;3.17;1.90;;;22.40;47.80;;;;;;4985799;28;20516;-86
2021/04/24 10:54:43;;;;;;;2.10;1.80;;;22.30;47.70;;;;;;4936612;29;20461;-85
2021/04/24 10:57:37;;;;;;;2.30;2.10;;;22.40;47.80;;;;;;4982150;28;20507;-86
2021/04/24 11:00:26;;;;;;;3.37;1.77;;;22.40;47.70;;;;;;4989923;28;21001;-85
2021/04/24 11:03:16;;;;;;;2.80;1.57;;;22.40;47.70;;;;;;4981101;28;20420;-85
2021/04/24 11:06:31;;;;;;;2.77;2.07;;;22.40;47.80;;;;;;4989478;28;20404;-83
2021/04/24 11:09:59;;;;;;;1.83;1.67;;;22.40;47.70;;;;;;5002179;28;20440;-83
2021/04/24 11:40:17;;;;;;;1.57;1.40;;;22.40;47.80;;;;;;5027411;28;20399;-83
2021/04/24 12:20:50;;;;;;;1.50;1.40;;;22.20;47.50;;;;;;4837709;29;20403;-84
2021/04/24 12:31:22;;;;;;;;;;;;;;;;;;;;;
2021/04/24 12:34:03;;;;;;;1.87;1.70;;;22.30;47.60;;;;;;4852022;29;20849;-84
2021/04/24 12:37:39;;;;;;;;;;;;;;;;;;;;;
2021/04/24 12:44:12;;;;;;;;;;;;;;;;;;;;;
2021/04/24 12:46:53;;;;;;;2.50;1.90;;;22.30;47.50;;;;;;4913764;29;20448;-85
2021/04/24 12:49:19;;;;;;;1.70;1.60;;;22.30;47.60;;;;;;4896994;29;20420;-86
2021/04/24 14:03:28;;;;;;;2.23;2.03;;;22.20;47.30;;;;;;4934377;29;20432;-85
2021/04/24 14:23:22;;;;;;;;;;;;;;;;;;;;;
2021/04/24 16:34:34;;;;;;;;;;;;;;;;;;;;;
2021/04/24 17:04:50;;;;;;;;;;;;;;;;;;;;;
2021/04/24 17:45:38;;;;;;;;;;;;;;;;;;;;;
